createdAt,value
2022-08-22T00:01:25.184Z,21.70
2022-08-22T00:04:08.001Z,21.70
2022-08-22T00:07:03.223Z,21.63
2022-08-22T00:09:44.977Z,21.62
2022-08-22T00:12:27.561Z,21.59
2022-08-22T00:15:26.112Z,21.54
2022-08-22T00:18:22.908Z,21.52
2022-08-22T00:21:15.901Z,21.47
2022-08-22T00:24:17.680Z,21.45
2022-08-22T00:27:05.599Z,21.39
2022-08-22T00:29:44.997Z,21.33
2022-08-22T00:32:50.766Z,21.32
2022-08-22T00:35:23.449Z,21.29
2022-08-22T00:38:10.479Z,21.28
2022-08-22T00:41:14.311Z,21.24
2022-08-22T00:44:17.391Z,21.21
2022-08-22T00:47:10.827Z,21.14
2022-08-22T00:50:15.312Z,21.11
2022-08-22T00:53:19.922Z,21.06
2022-08-22T00:55:57.173Z,21.03
2022-08-22T00:58:55.703Z,20.97
2022-08-22T01:01:32.153Z,20.91
2022-08-22T01:04:33.040Z,20.90
2022-08-22T01:07:11.771Z,20.87
2022-08-22T01:10:04.485Z,20.82
2022-08-22T01:13:20.416Z,20.80
2022-08-22T01:15:50.773Z,20.77
2022-08-22T01:18:59.471Z,20.74
2022-08-22T01:22:26.553Z,20.66
2022-08-22T01:25:36.646Z,20.62
2022-08-22T01:28:41.096Z,20.58
2022-08-22T01:32:12.109Z,20.56
2022-08-22T01:35:02.240Z,20.54
2022-08-22T01:38:00.108Z,20.53
2022-08-22T01:41:06.767Z,20.50
2022-08-22T01:44:09.227Z,20.46
2022-08-22T01:47:13.929Z,20.48
2022-08-22T01:49:49.036Z,20.45
2022-08-22T01:52:43.316Z,20.44
2022-08-22T01:55:34.432Z,20.43
2022-08-22T01:58:18.971Z,20.43
2022-08-22T02:01:14.072Z,20.41
2022-08-22T02:04:05.915Z,20.39
2022-08-22T02:07:01.891Z,20.35
2022-08-22T02:09:39.462Z,20.34
2022-08-22T02:12:42.682Z,20.32
2022-08-22T02:15:30.163Z,20.33
2022-08-22T02:18:01.054Z,20.28
2022-08-22T02:21:16.594Z,20.24
2022-08-22T02:24:14.203Z,20.22
2022-08-22T02:27:05.580Z,20.14
2022-08-22T02:29:52.554Z,20.09
2022-08-22T02:32:37.237Z,20.03
2022-08-22T02:35:14.279Z,19.99
2022-08-22T02:38:24.230Z,19.98
2022-08-22T02:41:21.951Z,19.96
2022-08-22T02:43:57.963Z,19.92
2022-08-22T02:46:58.805Z,19.89
2022-08-22T02:50:14.388Z,19.89
2022-08-22T02:52:55.894Z,19.88
2022-08-22T02:55:38.254Z,19.86
2022-08-22T02:58:19.344Z,19.85
2022-08-22T03:00:50.548Z,19.84
2022-08-22T03:03:24.977Z,19.82
2022-08-22T03:06:01.807Z,19.81
2022-08-22T03:08:38.873Z,19.80
2022-08-22T03:11:32.305Z,19.78
2022-08-22T03:14:27.552Z,19.73
2022-08-22T03:17:18.404Z,19.73
2022-08-22T03:20:14.790Z,19.69
2022-08-22T03:22:57.403Z,19.69
2022-08-22T03:25:39.730Z,19.69
2022-08-22T03:28:20.862Z,19.66
2022-08-22T03:30:56.942Z,19.64
2022-08-22T03:33:30.918Z,19.63
2022-08-22T03:36:08.300Z,19.63
2022-08-22T03:38:36.322Z,19.63
2022-08-22T03:41:35.549Z,19.59
2022-08-22T03:44:34.435Z,19.57
2022-08-22T03:47:31.967Z,19.49
2022-08-22T03:50:28.584Z,19.50
2022-08-22T03:53:32.510Z,19.49
2022-08-22T03:56:38.888Z,19.47
2022-08-22T03:59:52.576Z,19.46
2022-08-22T04:02:42.928Z,19.48
2022-08-22T04:05:32.546Z,19.46
2022-08-22T04:08:45.122Z,19.46
2022-08-22T04:11:48.854Z,19.44
2022-08-22T04:14:49.601Z,19.45
2022-08-22T04:17:48.300Z,19.41
2022-08-22T04:20:43.038Z,19.39
2022-08-22T04:23:41.030Z,19.35
2022-08-22T04:26:17.492Z,19.31
2022-08-22T04:28:52.477Z,19.27
2022-08-22T04:31:27.884Z,19.21
2022-08-22T04:34:10.894Z,19.19
2022-08-22T04:36:55.937Z,19.17
2022-08-22T04:39:40.628Z,19.19
2022-08-22T04:42:32.557Z,19.23
2022-08-22T04:45:12.530Z,19.26
2022-08-22T04:47:54.870Z,19.28
2022-08-22T04:50:35.061Z,19.32
2022-08-22T04:53:16.868Z,19.36
2022-08-22T04:56:11.407Z,19.40
2022-08-22T04:59:04.634Z,19.43
2022-08-22T05:01:58.562Z,19.45
2022-08-22T05:04:46.452Z,19.49
2022-08-22T05:07:25.237Z,19.53
2022-08-22T05:10:20.239Z,19.57
2022-08-22T05:13:07.297Z,19.59
2022-08-22T05:15:37.909Z,19.61
2022-08-22T05:18:29.631Z,19.64
2022-08-22T05:21:02.203Z,19.63
2022-08-22T05:23:55.831Z,19.68
2022-08-22T05:26:23.208Z,19.70
2022-08-22T05:28:58.479Z,19.72
2022-08-22T05:31:31.130Z,19.72
2022-08-22T05:34:23.100Z,19.75
2022-08-22T05:37:00.021Z,19.77
2022-08-22T05:39:29.849Z,19.79
2022-08-22T05:42:00.776Z,19.85
2022-08-22T05:44:34.950Z,19.88
2022-08-22T05:47:21.458Z,19.91
2022-08-22T05:50:43.257Z,19.75
2022-08-22T05:53:28.467Z,19.80
2022-08-22T05:56:19.240Z,19.83
2022-08-22T05:58:54.868Z,19.79
2022-08-22T06:01:29.560Z,19.74
2022-08-22T06:04:32.000Z,19.61
2022-08-22T06:07:07.339Z,19.52
2022-08-22T06:09:46.389Z,19.45
2022-08-22T06:12:45.440Z,19.42
2022-08-22T06:15:23.019Z,19.41
2022-08-22T06:18:05.196Z,19.51
2022-08-22T06:20:43.566Z,19.60
2022-08-22T06:23:20.230Z,19.70
2022-08-22T06:25:49.860Z,19.82
2022-08-22T06:28:25.201Z,19.98
2022-08-22T06:30:55.662Z,20.16
2022-08-22T06:33:28.780Z,20.36
2022-08-22T06:36:21.633Z,20.56
2022-08-22T06:39:20.300Z,20.68
2022-08-22T06:42:16.699Z,20.85
2022-08-22T06:44:51.682Z,21.02
2022-08-22T06:47:37.728Z,21.23
2022-08-22T06:50:14.186Z,21.40
2022-08-22T06:53:00.788Z,21.55
2022-08-22T06:55:30.182Z,21.70
2022-08-22T06:58:03.961Z,21.83
2022-08-22T07:00:34.640Z,22.00
2022-08-22T07:03:16.192Z,22.09
2022-08-22T07:05:43.968Z,22.20
2022-08-22T07:08:19.892Z,22.37
2022-08-22T07:11:27.539Z,22.49
2022-08-22T07:14:00.867Z,22.56
2022-08-22T07:16:40.820Z,22.63
2022-08-22T07:19:10.515Z,22.81
2022-08-22T07:21:46.280Z,22.98
2022-08-22T07:24:24.485Z,23.16
2022-08-22T07:27:06.089Z,23.35
2022-08-22T07:30:01.207Z,23.48
2022-08-22T07:33:25.721Z,23.61
2022-08-22T07:36:00.637Z,23.71
2022-08-22T07:38:43.700Z,23.79
2022-08-22T07:41:53.944Z,23.90
2022-08-22T07:44:24.280Z,24.03
2022-08-22T07:47:00.971Z,24.18
2022-08-22T07:49:49.894Z,24.30
2022-08-22T07:52:18.010Z,24.44
2022-08-22T07:54:56.229Z,24.58
2022-08-22T07:57:38.767Z,24.70
2022-08-22T08:00:17.457Z,24.79
2022-08-22T08:02:53.072Z,24.93
2022-08-22T08:05:24.745Z,25.06
2022-08-22T08:07:55.632Z,25.18
2022-08-22T08:10:29.538Z,25.30
2022-08-22T08:13:12.735Z,25.37
2022-08-22T08:15:40.831Z,25.41
2022-08-22T08:18:21.914Z,25.49
2022-08-22T08:21:00.178Z,25.54
2022-08-22T08:23:32.033Z,25.60
2022-08-22T08:26:17.506Z,25.64
2022-08-22T08:28:58.173Z,25.76
2022-08-22T08:31:38.173Z,25.90
2022-08-22T08:34:22.442Z,26.03
2022-08-22T08:36:54.753Z,26.17
2022-08-22T08:39:37.393Z,26.33
2022-08-22T08:42:59.236Z,26.44
2022-08-22T08:46:14.289Z,26.53
2022-08-22T08:49:06.534Z,26.63
2022-08-22T08:52:18.255Z,26.72
2022-08-22T08:55:21.743Z,26.84
2022-08-22T08:58:33.715Z,26.93
2022-08-22T09:01:13.983Z,27.00
2022-08-22T09:07:53.456Z,27.21
2022-08-22T09:10:58.876Z,27.28
2022-08-22T09:13:47.251Z,27.38
2022-08-22T09:17:07.690Z,27.43
2022-08-22T09:20:03.011Z,27.47
2022-08-22T09:26:52.217Z,27.53
2022-08-22T09:30:11.827Z,27.56
2022-08-22T09:32:56.851Z,27.70
2022-08-22T09:36:13.215Z,27.72
2022-08-22T09:39:19.128Z,27.77
2022-08-22T09:42:15.522Z,27.82
2022-08-22T09:45:11.664Z,27.90
2022-08-22T09:47:58.406Z,27.94
2022-08-22T09:50:52.719Z,27.96
2022-08-22T09:53:43.399Z,28.06
2022-08-22T09:56:26.041Z,28.18
2022-08-22T09:59:22.407Z,28.30
2022-08-22T10:02:06.195Z,28.38
2022-08-22T10:05:13.752Z,28.41
2022-08-22T10:08:20.055Z,28.43
2022-08-22T10:11:22.878Z,28.51
2022-08-22T10:14:13.732Z,28.59
2022-08-22T10:16:49.225Z,28.65
2022-08-22T10:19:47.711Z,28.64
2022-08-22T10:22:47.272Z,28.65
2022-08-22T10:25:31.806Z,28.65
2022-08-22T10:28:41.972Z,28.71
2022-08-22T10:31:45.052Z,28.71
2022-08-22T10:34:43.348Z,28.74
2022-08-22T10:37:39.686Z,28.80
2022-08-22T10:40:44.027Z,28.91
2022-08-22T10:44:00.446Z,28.97
2022-08-22T10:46:51.896Z,29.03
2022-08-22T10:49:43.373Z,29.09
2022-08-22T10:52:21.901Z,29.13
2022-08-22T10:55:09.819Z,29.13
2022-08-22T10:58:01.898Z,29.08
2022-08-22T11:00:50.796Z,29.12
2022-08-22T11:03:40.252Z,29.23
2022-08-22T11:06:18.067Z,29.33
2022-08-22T11:09:16.997Z,29.42
2022-08-22T11:12:34.592Z,29.41
2022-08-22T11:15:43.507Z,29.45
2022-08-22T11:18:23.715Z,29.54
2022-08-22T11:21:12.134Z,29.64
2022-08-22T11:23:48.274Z,29.73
2022-08-22T11:26:46.985Z,29.75
2022-08-22T11:29:29.681Z,29.77
2022-08-22T11:32:25.633Z,29.83
2022-08-22T11:35:09.244Z,29.91
2022-08-22T11:37:42.981Z,29.98
2022-08-22T11:40:36.227Z,29.99
2022-08-22T11:43:32.481Z,30.03
2022-08-22T11:46:14.433Z,30.10
2022-08-22T11:49:09.040Z,30.24
2022-08-22T11:52:04.952Z,30.35
2022-08-22T11:54:40.130Z,30.40
2022-08-22T11:57:12.689Z,30.42
2022-08-22T11:59:43.145Z,30.40
2022-08-22T12:02:26.382Z,30.40
2022-08-22T12:04:59.676Z,30.42
2022-08-22T12:07:37.033Z,30.41
2022-08-22T12:10:18.143Z,30.43
2022-08-22T12:13:05.736Z,30.47
2022-08-22T12:16:06.203Z,30.50
2022-08-22T12:18:54.390Z,30.47
2022-08-22T12:21:51.542Z,30.45
2022-08-22T12:24:33.348Z,30.42
2022-08-22T12:27:28.866Z,30.35
2022-08-22T12:30:14.487Z,30.31
2022-08-22T12:33:10.539Z,30.30
2022-08-22T12:36:09.613Z,30.34
2022-08-22T12:39:18.420Z,30.33
2022-08-22T12:42:05.714Z,30.35
2022-08-22T12:45:05.792Z,30.37
2022-08-22T12:48:35.870Z,30.45
2022-08-22T12:51:35.183Z,30.52
2022-08-22T12:54:27.901Z,30.57
2022-08-22T12:57:24.501Z,30.56
2022-08-22T13:00:16.641Z,30.55
2022-08-22T13:02:54.155Z,30.47
2022-08-22T13:05:26.349Z,30.47
2022-08-22T13:08:04.529Z,30.44
2022-08-22T13:10:49.814Z,30.47
2022-08-22T13:13:36.531Z,30.42
2022-08-22T13:16:15.656Z,30.39
2022-08-22T13:18:59.273Z,30.39
2022-08-22T13:21:35.996Z,30.43
2022-08-22T13:24:16.647Z,30.42
2022-08-22T13:26:54.039Z,30.32
2022-08-22T13:29:39.368Z,30.22
2022-08-22T13:32:23.813Z,30.15
2022-08-22T13:34:56.333Z,30.16
2022-08-22T13:37:40.219Z,30.16
2022-08-22T13:40:14.448Z,30.02
2022-08-22T13:42:49.324Z,29.90
2022-08-22T13:45:28.624Z,29.87
2022-08-22T13:48:00.937Z,29.82
2022-08-22T13:50:35.883Z,29.81
2022-08-22T13:53:48.989Z,29.94
2022-08-22T13:56:39.809Z,30.05
2022-08-22T13:59:54.784Z,30.01
2022-08-22T14:02:52.182Z,30.01
2022-08-22T14:05:38.136Z,29.98
2022-08-22T14:08:25.878Z,29.92
2022-08-22T14:11:19.184Z,29.75
2022-08-22T14:13:59.337Z,29.61
2022-08-22T14:16:39.877Z,29.49
2022-08-22T14:19:12.186Z,29.48
2022-08-22T14:21:51.855Z,29.47
2022-08-22T14:24:31.248Z,29.51
2022-08-22T14:27:34.191Z,29.61
2022-08-22T14:30:16.164Z,29.67
2022-08-22T14:32:59.748Z,29.65
2022-08-22T14:35:35.139Z,29.65
2022-08-22T14:38:35.704Z,29.60
2022-08-22T14:41:28.632Z,29.57
2022-08-22T14:44:27.011Z,29.53
2022-08-22T14:47:01.925Z,29.49
2022-08-22T14:50:00.617Z,29.46
2022-08-22T14:52:53.196Z,29.51
2022-08-22T14:55:30.590Z,29.52
2022-08-22T14:58:03.448Z,29.51
2022-08-22T15:00:36.804Z,29.47
2022-08-22T15:03:12.991Z,29.35
2022-08-22T15:06:09.926Z,29.26
2022-08-22T15:08:49.681Z,29.26
2022-08-22T15:11:20.913Z,29.27
2022-08-22T15:14:07.316Z,29.29
2022-08-22T15:16:52.160Z,29.29
2022-08-22T15:19:44.452Z,29.26
2022-08-22T15:22:21.895Z,29.20
2022-08-22T15:25:26.906Z,29.15
2022-08-22T15:28:05.783Z,29.10
2022-08-22T15:30:45.612Z,29.03
2022-08-22T15:33:16.493Z,29.04
2022-08-22T15:35:45.475Z,29.06
2022-08-22T15:38:48.135Z,29.05
2022-08-22T15:41:36.703Z,29.03
2022-08-22T15:44:30.589Z,28.94
2022-08-22T15:47:13.465Z,28.88
2022-08-22T15:50:02.714Z,28.91
2022-08-22T15:52:59.642Z,28.94
2022-08-22T15:55:34.435Z,28.94
2022-08-22T15:58:12.975Z,28.90
2022-08-22T16:01:05.566Z,28.85
2022-08-22T16:04:04.599Z,28.77
2022-08-22T16:06:49.174Z,28.68
2022-08-22T16:09:50.416Z,28.52
2022-08-22T16:12:45.701Z,28.38
2022-08-22T16:15:55.720Z,28.35
2022-08-22T16:18:39.430Z,28.32
2022-08-22T16:21:22.091Z,28.27
2022-08-22T16:23:53.592Z,28.17
2022-08-22T16:26:24.956Z,28.11
2022-08-22T16:29:12.374Z,28.08
2022-08-22T16:31:44.473Z,28.00
2022-08-22T16:34:17.218Z,27.95
2022-08-22T16:37:08.695Z,27.90
2022-08-22T16:39:42.001Z,27.89
2022-08-22T16:42:15.627Z,27.86
2022-08-22T16:45:02.303Z,27.81
2022-08-22T16:47:36.130Z,27.74
2022-08-22T16:50:18.406Z,27.67
2022-08-22T16:53:01.200Z,27.60
2022-08-22T16:55:31.055Z,27.57
2022-08-22T16:58:44.981Z,27.54
2022-08-22T17:01:41.321Z,27.49
2022-08-22T17:04:28.128Z,27.46
2022-08-22T17:07:09.727Z,27.47
2022-08-22T17:09:56.126Z,27.49
2022-08-22T17:13:10.176Z,27.46
2022-08-22T17:16:05.842Z,27.45
2022-08-22T17:18:57.830Z,27.47
2022-08-22T17:21:51.010Z,27.46
2022-08-22T17:24:34.482Z,27.41
2022-08-22T17:27:23.356Z,27.31
2022-08-22T17:30:09.607Z,27.12
2022-08-22T17:33:12.113Z,27.04
2022-08-22T17:36:26.327Z,26.96
2022-08-22T17:39:16.763Z,26.86
2022-08-22T17:42:00.283Z,26.74
2022-08-22T17:45:18.080Z,26.58
2022-08-22T17:47:54.260Z,26.47
2022-08-22T17:50:33.175Z,26.39
2022-08-22T17:53:16.256Z,26.32
2022-08-22T17:56:17.075Z,26.25
2022-08-22T17:59:01.048Z,26.18
2022-08-22T18:01:58.692Z,26.15
2022-08-22T18:04:43.361Z,26.05
2022-08-22T18:07:31.702Z,25.93
2022-08-22T18:10:21.657Z,25.87
2022-08-22T18:13:31.609Z,25.85
2022-08-22T18:16:16.391Z,25.77
2022-08-22T18:18:56.181Z,25.75
2022-08-22T18:21:33.150Z,25.71
2022-08-22T18:24:16.454Z,25.55
2022-08-22T18:26:58.484Z,25.39
2022-08-22T18:29:49.601Z,25.27
2022-08-22T18:32:35.660Z,25.16
2022-08-22T18:35:28.986Z,25.12
2022-08-22T18:38:19.808Z,25.10
2022-08-22T18:40:59.109Z,25.08
2022-08-22T18:43:44.490Z,25.11
2022-08-22T18:46:42.844Z,25.17
2022-08-22T18:49:19.521Z,25.16
2022-08-22T18:52:26.857Z,25.15
2022-08-22T18:55:43.752Z,25.10
2022-08-22T18:58:28.250Z,25.07
2022-08-22T19:01:15.715Z,25.05
2022-08-22T19:04:17.448Z,24.96
2022-08-22T19:07:05.445Z,25.06
2022-08-22T19:09:57.932Z,25.07
2022-08-22T19:13:02.268Z,25.05
2022-08-22T19:15:56.654Z,25.08
2022-08-22T19:18:44.783Z,25.10
2022-08-22T19:21:34.732Z,25.12
2022-08-22T19:24:29.666Z,25.09
2022-08-22T19:27:23.648Z,25.04
2022-08-22T19:29:56.275Z,24.97
2022-08-22T19:33:00.240Z,24.87
2022-08-22T19:35:44.141Z,24.75
2022-08-22T19:38:11.774Z,24.62
2022-08-22T19:40:44.702Z,24.47
2022-08-22T19:43:30.472Z,24.32
2022-08-22T19:46:00.990Z,24.22
2022-08-22T19:48:44.443Z,24.15
2022-08-22T19:51:32.015Z,24.08
2022-08-22T19:54:01.819Z,24.06
2022-08-22T19:57:15.699Z,24.00
2022-08-22T20:00:08.288Z,23.97
2022-08-22T20:03:32.430Z,24.00
2022-08-22T20:06:40.683Z,24.16
2022-08-22T20:09:25.328Z,24.24
2022-08-22T20:12:01.330Z,24.29
2022-08-22T20:14:35.276Z,24.32
2022-08-22T20:17:38.455Z,24.31
2022-08-22T20:20:24.010Z,24.34
2022-08-22T20:23:29.726Z,24.35
2022-08-22T20:25:57.726Z,24.38
2022-08-22T20:28:33.244Z,24.34
2022-08-22T20:31:06.350Z,24.39
2022-08-22T20:33:38.308Z,24.41
2022-08-22T20:36:16.643Z,24.43
2022-08-22T20:39:01.167Z,24.44
2022-08-22T20:41:40.896Z,24.43
2022-08-22T20:44:18.548Z,24.44
2022-08-22T20:47:04.652Z,24.46
2022-08-22T20:49:46.215Z,24.49
2022-08-22T20:52:33.736Z,24.52
2022-08-22T20:55:31.696Z,24.53
2022-08-22T20:58:03.919Z,24.54
2022-08-22T21:00:36.468Z,24.53
2022-08-22T21:03:12.912Z,24.56
2022-08-22T21:05:44.551Z,24.57
2022-08-22T21:08:21.196Z,24.58
2022-08-22T21:11:20.252Z,24.58
2022-08-22T21:13:47.712Z,24.56
2022-08-22T21:16:22.280Z,24.56
2022-08-22T21:18:54.011Z,24.55
2022-08-22T21:21:28.808Z,24.56
2022-08-22T21:24:02.488Z,24.56
2022-08-22T21:26:36.560Z,24.55
2022-08-22T21:29:18.740Z,24.54
2022-08-22T21:31:48.735Z,24.52
2022-08-22T21:34:32.352Z,24.49
2022-08-22T21:37:07.772Z,24.46
2022-08-22T21:39:45.164Z,24.42
2022-08-22T21:42:23.879Z,24.44
2022-08-22T21:45:00.115Z,24.43
2022-08-22T21:47:32.397Z,24.43
2022-08-22T21:50:25.889Z,24.40
2022-08-22T21:52:55.701Z,24.39
2022-08-22T21:55:42.976Z,24.36
2022-08-22T21:58:35.947Z,24.34
2022-08-22T22:01:30.551Z,24.32
2022-08-22T22:03:59.136Z,24.34
2022-08-22T22:06:27.368Z,24.34
2022-08-22T22:08:54.438Z,24.33
2022-08-22T22:11:21.405Z,24.34
2022-08-22T22:13:48.948Z,24.30
2022-08-22T22:16:25.524Z,24.29
2022-08-22T22:18:52.439Z,24.28
2022-08-22T22:21:19.561Z,24.26
2022-08-22T22:23:46.621Z,24.24
2022-08-22T22:26:14.263Z,24.22
2022-08-22T22:28:47.406Z,24.17
2022-08-22T22:31:16.327Z,24.15
2022-08-22T22:33:43.926Z,24.13
2022-08-22T22:36:23.085Z,24.09
2022-08-22T22:38:51.691Z,24.01
2022-08-22T22:41:20.366Z,24.04
2022-08-22T22:43:47.332Z,24.01
2022-08-22T22:46:14.236Z,23.95
2022-08-22T22:48:41.153Z,23.92
2022-08-22T22:51:11.080Z,23.88
2022-08-22T22:53:40.296Z,23.83
2022-08-22T22:56:14.153Z,23.78
2022-08-22T22:58:43.467Z,23.73
2022-08-22T23:01:23.685Z,23.68
2022-08-22T23:03:56.013Z,23.64
2022-08-22T23:06:27.774Z,23.59
2022-08-22T23:08:55.243Z,23.56
2022-08-22T23:11:31.395Z,23.55
2022-08-22T23:13:58.345Z,23.54
2022-08-22T23:16:28.212Z,23.53
2022-08-22T23:18:56.246Z,23.52
2022-08-22T23:21:30.287Z,23.51
2022-08-22T23:23:59.679Z,23.52
2022-08-22T23:26:27.792Z,23.51
2022-08-22T23:28:55.614Z,23.51
2022-08-22T23:31:43.149Z,23.49
2022-08-22T23:34:14.743Z,23.48
2022-08-22T23:36:45.925Z,23.46
2022-08-22T23:39:15.569Z,23.45
2022-08-22T23:41:43.257Z,23.44
2022-08-22T23:44:13.730Z,23.42
2022-08-22T23:46:42.051Z,23.38
2022-08-22T23:49:09.765Z,23.37
2022-08-22T23:51:37.029Z,23.31
2022-08-22T23:54:04.668Z,23.23
2022-08-22T23:56:49.628Z,23.16
2022-08-22T23:59:22.415Z,23.13
